createdAt,value
2023-02-18T00:02:03.658Z,99392.25
2023-02-18T00:04:32.569Z,99384.78
2023-02-18T00:07:01.204Z,99391.09
2023-02-18T00:09:29.507Z,99389.47
2023-02-18T00:11:57.890Z,99382.56
2023-02-18T00:14:26.135Z,99380.19
2023-02-18T00:16:55.885Z,99378.97
2023-02-18T00:19:24.145Z,99372.94
2023-02-18T00:21:52.420Z,99377.91
2023-02-18T00:24:23.288Z,99383.50
2023-02-18T00:26:52.751Z,99385.75
2023-02-18T00:29:21.668Z,99367.88
2023-02-18T00:31:50.189Z,99358.47
2023-02-18T00:34:19.829Z,99362.03
2023-02-18T00:36:48.219Z,99361.88
2023-02-18T00:39:16.585Z,99365.78
2023-02-18T00:41:45.375Z,99367.13
2023-02-18T00:44:14.272Z,99359.66
2023-02-18T00:46:42.598Z,99359.31
2023-02-18T00:49:11.049Z,99360.16
2023-02-18T00:51:42.257Z,99362.78
2023-02-18T00:54:10.701Z,99353.53
2023-02-18T00:56:38.957Z,99378.28
2023-02-18T00:59:07.232Z,99377.53
2023-02-18T01:01:35.889Z,99376.38
2023-02-18T01:04:04.356Z,99373.13
2023-02-18T01:06:33.287Z,99374.88
2023-02-18T01:09:06.247Z,99370.03
2023-02-18T01:11:34.828Z,99366.56
2023-02-18T01:14:04.034Z,99372.88
2023-02-18T01:16:32.364Z,99366.97
2023-02-18T01:19:00.706Z,99366.34
2023-02-18T01:21:29.347Z,99359.31
2023-02-18T01:23:58.154Z,99366.25
2023-02-18T01:26:27.849Z,99368.59
2023-02-18T01:28:56.106Z,99371.69
2023-02-18T01:31:24.480Z,99371.69
2023-02-18T01:33:52.831Z,99373.97
2023-02-18T01:36:22.137Z,99373.50
2023-02-18T01:38:50.585Z,99370.28
2023-02-18T01:41:18.840Z,99364.34
2023-02-18T01:43:48.538Z,99365.28
2023-02-18T01:46:19.720Z,99376.41
2023-02-18T01:48:52.398Z,99365.50
2023-02-18T01:51:23.710Z,99363.50
2023-02-18T01:53:55.016Z,99358.22
2023-02-18T01:56:25.621Z,99366.50
2023-02-18T01:59:00.684Z,99356.56
2023-02-18T02:01:28.989Z,99366.50
2023-02-18T02:03:59.222Z,99369.59
2023-02-18T02:06:27.565Z,99374.28
2023-02-18T02:09:00.588Z,99370.50
2023-02-18T02:11:52.484Z,99372.41
2023-02-18T02:14:30.762Z,99362.38
2023-02-18T02:17:01.605Z,99350.28
2023-02-18T02:19:44.297Z,99353.66
2023-02-18T02:22:23.424Z,99353.31
2023-02-18T02:25:15.765Z,99344.88
2023-02-18T02:27:53.525Z,99348.41
2023-02-18T02:30:36.428Z,99347.28
2023-02-18T02:33:15.275Z,99345.41
2023-02-18T02:35:46.804Z,99342.22
2023-02-18T02:38:19.952Z,99345.50
2023-02-18T02:40:53.637Z,99335.69
2023-02-18T02:43:26.509Z,99348.06
2023-02-18T02:45:59.237Z,99342.59
2023-02-18T02:48:33.504Z,99342.16
2023-02-18T02:51:06.106Z,99337.97
2023-02-18T02:53:37.025Z,99333.59
2023-02-18T02:56:05.270Z,99325.72
2023-02-18T02:58:35.351Z,99333.34
2023-02-18T03:01:20.408Z,99330.81
2023-02-18T03:04:05.766Z,99325.78
2023-02-18T03:07:03.099Z,99317.34
2023-02-18T03:09:43.145Z,99315.28
2023-02-18T03:12:20.323Z,99317.94
2023-02-18T03:14:59.143Z,99307.91
2023-02-18T03:17:35.294Z,99307.25
2023-02-18T03:20:10.308Z,99308.84
2023-02-18T03:22:43.309Z,99306.34
2023-02-18T03:25:13.078Z,99303.81
2023-02-18T03:27:46.151Z,99300.75
2023-02-18T03:30:19.220Z,99292.16
2023-02-18T03:32:50.390Z,99296.88
2023-02-18T03:35:19.820Z,99275.50
2023-02-18T03:37:54.433Z,99302.47
2023-02-18T03:40:23.968Z,99305.34
2023-02-18T03:42:52.414Z,99315.03
2023-02-18T03:45:20.725Z,99325.00
2023-02-18T03:47:49.314Z,99310.56
2023-02-18T03:50:18.034Z,99317.97
2023-02-18T03:52:46.783Z,99310.00
2023-02-18T03:55:16.515Z,99318.88
2023-02-18T03:57:44.803Z,99310.78
2023-02-18T04:00:13.802Z,99308.38
2023-02-18T04:02:42.405Z,99293.72
2023-02-18T04:05:11.555Z,99294.66
2023-02-18T04:07:39.859Z,99289.56
2023-02-18T04:10:09.434Z,99276.09
2023-02-18T04:12:39.109Z,99278.50
2023-02-18T04:15:07.801Z,99275.19
2023-02-18T04:17:36.130Z,99278.88
2023-02-18T04:20:05.650Z,99278.13
2023-02-18T04:22:34.060Z,99275.75
2023-02-18T04:25:04.355Z,99282.53
2023-02-18T04:27:32.602Z,99277.06
2023-02-18T04:30:02.648Z,99282.59
2023-02-18T04:32:31.044Z,99277.44
2023-02-18T04:34:59.474Z,99275.50
2023-02-18T04:37:27.832Z,99279.75
2023-02-18T04:39:56.156Z,99284.78
2023-02-18T04:42:24.705Z,99267.50
2023-02-18T04:44:52.945Z,99273.25
2023-02-18T04:47:22.728Z,99271.66
2023-02-18T04:49:51.060Z,99270.19
2023-02-18T04:52:19.789Z,99276.13
2023-02-18T04:54:48.257Z,99272.56
2023-02-18T04:57:16.684Z,99275.66
2023-02-18T04:59:45.169Z,99269.41
2023-02-18T05:02:13.423Z,99271.00
2023-02-18T05:04:43.089Z,99281.44
2023-02-18T05:07:11.492Z,99289.97
2023-02-18T05:09:39.816Z,99282.31
2023-02-18T05:12:08.551Z,99284.94
2023-02-18T05:14:36.900Z,99268.56
2023-02-18T05:17:05.222Z,99265.59
2023-02-18T05:19:33.578Z,99261.72
2023-02-18T05:22:03.232Z,99265.53
2023-02-18T05:24:31.594Z,99267.31
2023-02-18T05:26:59.853Z,99254.13
2023-02-18T05:29:28.172Z,99255.28
2023-02-18T05:31:56.580Z,99251.66
2023-02-18T05:34:24.916Z,99246.22
2023-02-18T05:36:53.304Z,99253.81
2023-02-18T05:39:23.042Z,99249.41
2023-02-18T05:41:51.317Z,99253.44
2023-02-18T05:44:31.526Z,99248.19
2023-02-18T05:47:00.706Z,99247.09
2023-02-18T05:49:29.646Z,99243.56
2023-02-18T05:51:58.366Z,99253.63
2023-02-18T05:54:28.393Z,99247.38
2023-02-18T05:56:59.116Z,99256.63
2023-02-18T05:59:30.215Z,99258.75
2023-02-18T06:01:58.807Z,99257.00
2023-02-18T06:04:27.649Z,99256.75
2023-02-18T06:06:58.320Z,99265.88
2023-02-18T06:09:28.112Z,99255.63
2023-02-18T06:11:56.453Z,99251.22
2023-02-18T06:14:25.005Z,99243.94
2023-02-18T06:16:53.513Z,99247.03
2023-02-18T06:19:21.903Z,99251.16
2023-02-18T06:21:50.262Z,99259.34
2023-02-18T06:24:18.625Z,99245.84
2023-02-18T06:26:48.229Z,99249.16
2023-02-18T06:29:16.519Z,99257.50
2023-02-18T06:31:44.995Z,99251.78
2023-02-18T06:34:13.723Z,99254.53
2023-02-18T06:36:44.385Z,99261.34
2023-02-18T06:39:13.587Z,99267.50
2023-02-18T06:41:42.014Z,99268.19
2023-02-18T06:44:15.300Z,99270.78
2023-02-18T06:46:43.805Z,99259.81
2023-02-18T06:49:12.133Z,99259.44
2023-02-18T06:51:40.423Z,99257.72
2023-02-18T06:54:08.703Z,99267.31
2023-02-18T06:56:37.036Z,99254.50
2023-02-18T06:59:05.450Z,99243.97
2023-02-18T07:01:35.464Z,99254.19
2023-02-18T07:04:03.908Z,99255.69
2023-02-18T07:06:32.248Z,99248.09
2023-02-18T07:09:00.603Z,99252.50
2023-02-18T07:11:31.040Z,99250.41
2023-02-18T07:13:59.387Z,99246.66
2023-02-18T07:16:27.998Z,99238.31
2023-02-18T07:18:57.686Z,99234.88
2023-02-18T07:21:26.079Z,99234.66
2023-02-18T07:23:54.414Z,99231.38
2023-02-18T07:26:25.065Z,99214.19
2023-02-18T07:28:53.379Z,99223.75
2023-02-18T07:31:21.702Z,99222.22
2023-02-18T07:33:53.001Z,99217.59
2023-02-18T07:36:22.692Z,99222.69
2023-02-18T07:38:51.036Z,99217.03
2023-02-18T07:41:21.446Z,99222.94
2023-02-18T07:43:50.356Z,99219.22
2023-02-18T07:46:18.939Z,99210.75
2023-02-18T07:48:47.266Z,99219.72
2023-02-18T07:51:15.674Z,99210.97
2023-02-18T07:53:45.370Z,99218.44
2023-02-18T07:56:13.686Z,99227.44
2023-02-18T07:58:42.085Z,99225.88
2023-02-18T08:01:13.147Z,99213.84
2023-02-18T08:03:42.418Z,99218.78
2023-02-18T08:06:22.506Z,99214.88
2023-02-18T08:08:52.246Z,99231.47
2023-02-18T08:11:23.288Z,99221.75
2023-02-18T08:13:51.599Z,99214.53
2023-02-18T08:16:21.572Z,99219.38
2023-02-18T08:18:50.486Z,99206.63
2023-02-18T08:21:20.867Z,99224.69
2023-02-18T08:23:49.796Z,99222.09
2023-02-18T08:26:22.477Z,99218.31
2023-02-18T08:28:50.816Z,99203.16
2023-02-18T08:31:21.077Z,99222.66
2023-02-18T08:33:50.188Z,99210.34
2023-02-18T08:36:20.861Z,99212.16
2023-02-18T08:38:49.726Z,99200.44
2023-02-18T08:41:18.918Z,99199.63
2023-02-18T08:43:49.263Z,99197.97
2023-02-18T08:46:25.247Z,99204.56
2023-02-18T08:49:02.147Z,99196.25
2023-02-18T08:51:31.417Z,99200.84
2023-02-18T08:54:00.099Z,99191.88
2023-02-18T08:56:28.473Z,99191.28
2023-02-18T08:58:59.161Z,99192.78
2023-02-18T09:01:27.568Z,99199.53
2023-02-18T09:03:55.971Z,99179.78
2023-02-18T09:06:27.096Z,99167.56
2023-02-18T09:08:55.946Z,99179.22
2023-02-18T09:11:24.867Z,99181.44
2023-02-18T09:13:53.272Z,99184.59
2023-02-18T09:16:26.091Z,99171.13
2023-02-18T09:18:58.785Z,99169.84
2023-02-18T09:21:29.710Z,99172.53
2023-02-18T09:23:58.895Z,99179.59
2023-02-18T09:26:27.392Z,99183.78
2023-02-18T09:28:57.536Z,99181.34
2023-02-18T09:31:29.368Z,99174.75
2023-02-18T09:33:59.479Z,99181.41
2023-02-18T09:36:28.552Z,99175.31
2023-02-18T09:38:57.228Z,99187.63
2023-02-18T09:41:34.785Z,99171.41
2023-02-18T09:44:20.228Z,99179.63
2023-02-18T09:46:54.989Z,99173.00
2023-02-18T09:49:26.054Z,99193.44
2023-02-18T09:51:56.535Z,99179.38
2023-02-18T09:54:24.840Z,99181.66
2023-02-18T09:56:54.462Z,99177.63
2023-02-18T09:59:25.905Z,99180.88
2023-02-18T10:01:57.028Z,99184.19
2023-02-18T10:04:30.025Z,99186.25
2023-02-18T10:06:58.437Z,99178.66
2023-02-18T10:09:29.476Z,99180.56
2023-02-18T10:11:58.289Z,99183.91
2023-02-18T10:14:26.985Z,99178.75
2023-02-18T10:16:57.445Z,99180.47
2023-02-18T10:19:29.169Z,99197.41
2023-02-18T10:21:57.973Z,99185.03
2023-02-18T10:24:30.992Z,99185.44
2023-02-18T10:26:59.636Z,99176.28
2023-02-18T10:29:28.115Z,99179.41
2023-02-18T10:32:00.649Z,99193.59
2023-02-18T10:34:39.414Z,99181.91
2023-02-18T10:37:10.432Z,99177.50
2023-02-18T10:39:45.664Z,99194.22
2023-02-18T10:42:20.481Z,99183.28
2023-02-18T10:44:54.608Z,99176.22
2023-02-18T10:47:31.397Z,99171.84
2023-02-18T10:50:00.566Z,99170.34
2023-02-18T10:52:30.800Z,99172.28
2023-02-18T10:55:00.320Z,99175.78
2023-02-18T10:57:31.930Z,99162.88
2023-02-18T11:00:10.690Z,99172.22
2023-02-18T11:02:43.513Z,99173.50
2023-02-18T11:05:21.250Z,99159.97
2023-02-18T11:07:51.352Z,99167.09
2023-02-18T11:10:21.116Z,99164.34
2023-02-18T11:12:51.418Z,99150.63
2023-02-18T11:15:21.674Z,99166.72
2023-02-18T11:17:52.107Z,99156.38
2023-02-18T11:20:22.866Z,99156.19
2023-02-18T11:22:51.139Z,99172.16
2023-02-18T11:25:24.035Z,99164.50
2023-02-18T11:27:53.471Z,99160.31
2023-02-18T11:30:23.384Z,99165.41
2023-02-18T11:32:54.670Z,99151.69
2023-02-18T11:35:24.794Z,99161.00
2023-02-18T11:37:53.199Z,99155.25
2023-02-18T11:40:22.682Z,99149.56
2023-02-18T11:42:50.866Z,99134.63
2023-02-18T11:45:36.911Z,99146.22
2023-02-18T11:48:10.230Z,99143.09
2023-02-18T11:50:38.329Z,99146.00
2023-02-18T11:53:29.001Z,99143.63
2023-02-18T11:56:00.569Z,99141.97
2023-02-18T11:58:35.817Z,99152.00
2023-02-18T12:01:07.827Z,99143.19
2023-02-18T12:03:43.791Z,99139.09
2023-02-18T12:06:19.391Z,99119.19
2023-02-18T12:08:52.538Z,99137.44
2023-02-18T12:11:29.342Z,99136.44
2023-02-18T12:13:59.571Z,99134.28
2023-02-18T12:16:39.481Z,99127.59
2023-02-18T12:19:23.448Z,99124.53
2023-02-18T12:21:59.223Z,99130.75
2023-02-18T12:24:42.088Z,99117.78
2023-02-18T12:27:18.309Z,99137.44
2023-02-18T12:30:15.471Z,99122.75
2023-02-18T12:32:50.037Z,99128.78
2023-02-18T12:35:43.254Z,99112.75
2023-02-18T12:38:39.209Z,99115.78
2023-02-18T12:41:21.738Z,99109.19
2023-02-18T12:44:02.302Z,99090.31
2023-02-18T12:46:45.317Z,99105.81
2023-02-18T12:49:39.626Z,99097.63
2023-02-18T12:52:25.400Z,99105.63
2023-02-18T12:55:24.827Z,99109.59
2023-02-18T12:58:03.983Z,99098.81
2023-02-18T13:00:45.140Z,99096.94
2023-02-18T13:03:32.143Z,99103.56
2023-02-18T13:06:04.986Z,99104.72
2023-02-18T13:08:41.240Z,99103.28
2023-02-18T13:11:16.940Z,99087.19
2023-02-18T13:13:48.043Z,99097.44
2023-02-18T13:16:20.716Z,99086.78
2023-02-18T13:18:55.752Z,99087.50
2023-02-18T13:21:24.710Z,99071.22
2023-02-18T13:23:58.202Z,99080.47
2023-02-18T13:26:28.851Z,99069.53
2023-02-18T13:29:13.254Z,99065.66
2023-02-18T13:31:52.569Z,99069.22
2023-02-18T13:34:28.248Z,99059.88
2023-02-18T13:37:05.150Z,99063.81
2023-02-18T13:39:35.575Z,99066.13
2023-02-18T13:42:26.286Z,99055.50
2023-02-18T13:45:23.840Z,99059.84
2023-02-18T13:47:53.107Z,99048.03
2023-02-18T13:50:41.244Z,99054.34
2023-02-18T13:53:25.340Z,99048.69
2023-02-18T13:56:05.130Z,99042.28
2023-02-18T13:58:44.368Z,99042.56
2023-02-18T14:01:25.995Z,99057.03
2023-02-18T14:04:00.698Z,99051.63
2023-02-18T14:06:32.906Z,99044.72
2023-02-18T14:09:06.733Z,99041.22
2023-02-18T14:11:43.797Z,99040.22
2023-02-18T14:14:35.883Z,99033.97
2023-02-18T14:17:43.846Z,99034.50
2023-02-18T14:20:43.115Z,99030.38
2023-02-18T14:23:46.881Z,99031.63
2023-02-18T14:26:24.335Z,99038.38
2023-02-18T14:28:58.720Z,99038.59
2023-02-18T14:31:37.845Z,99040.78
2023-02-18T14:34:42.336Z,99031.16
2023-02-18T14:37:29.135Z,99039.78
2023-02-18T14:40:11.302Z,99026.63
2023-02-18T14:42:48.883Z,99029.91
2023-02-18T14:45:32.660Z,99019.69
2023-02-18T14:48:22.734Z,99031.72
2023-02-18T14:50:52.881Z,99033.94
2023-02-18T14:53:23.350Z,99025.19
2023-02-18T14:55:55.218Z,99030.94
2023-02-18T14:58:32.508Z,99028.94
2023-02-18T15:01:08.190Z,99034.06
2023-02-18T15:03:41.746Z,99023.91
2023-02-18T15:06:23.886Z,99030.19
2023-02-18T15:08:55.300Z,99013.81
2023-02-18T15:11:26.728Z,99035.00
2023-02-18T15:13:54.924Z,99034.69
2023-02-18T15:16:31.142Z,99033.44
2023-02-18T15:19:04.440Z,99028.56
2023-02-18T15:21:36.198Z,99038.81
2023-02-18T15:24:06.976Z,99039.88
2023-02-18T15:26:36.127Z,99046.00
2023-02-18T15:29:06.337Z,99051.53
2023-02-18T15:31:39.449Z,99029.06
2023-02-18T15:34:36.046Z,99028.16
2023-02-18T15:37:06.630Z,99039.16
2023-02-18T15:39:39.489Z,99031.03
2023-02-18T15:42:11.268Z,99026.25
2023-02-18T15:44:39.796Z,99034.25
2023-02-18T15:47:10.046Z,99033.19
2023-02-18T15:49:41.251Z,99022.91
2023-02-18T15:52:09.929Z,99026.84
2023-02-18T15:54:42.130Z,99031.94
2023-02-18T15:57:15.925Z,99021.59
2023-02-18T15:59:47.122Z,99018.94
2023-02-18T16:02:20.408Z,99026.84
2023-02-18T16:04:53.564Z,99028.28
2023-02-18T16:07:25.902Z,99031.94
2023-02-18T16:10:15.640Z,99029.69
2023-02-18T16:12:48.962Z,99029.28
2023-02-18T16:15:24.687Z,99041.03
2023-02-18T16:17:53.110Z,99023.94
2023-02-18T16:20:29.810Z,99038.94
2023-02-18T16:23:02.944Z,99037.03
2023-02-18T16:25:42.903Z,99037.25
2023-02-18T16:28:16.280Z,99027.72
2023-02-18T16:30:46.363Z,99036.69
2023-02-18T16:33:15.555Z,99034.81
2023-02-18T16:35:50.314Z,99032.31
2023-02-18T16:38:21.322Z,99031.84
2023-02-18T16:40:50.116Z,99041.88
2023-02-18T16:43:20.382Z,99036.44
2023-02-18T16:45:52.891Z,99041.66
2023-02-18T16:48:31.796Z,99045.91
2023-02-18T16:51:04.489Z,99053.09
2023-02-18T16:53:33.012Z,99048.25
2023-02-18T16:56:02.755Z,99050.81
2023-02-18T16:58:31.123Z,99049.09
2023-02-18T17:00:59.722Z,99055.47
2023-02-18T17:03:28.188Z,99060.53
2023-02-18T17:05:56.494Z,99066.34
2023-02-18T17:08:27.945Z,99068.09
2023-02-18T17:10:58.319Z,99040.03
2023-02-18T17:13:27.874Z,99060.16
2023-02-18T17:15:56.807Z,99068.91
2023-02-18T17:18:25.865Z,99068.41
2023-02-18T17:20:57.050Z,99064.84
2023-02-18T17:23:26.595Z,99068.88
2023-02-18T17:25:54.804Z,99064.16
2023-02-18T17:28:23.224Z,99065.03
2023-02-18T17:30:56.321Z,99069.97
2023-02-18T17:33:26.108Z,99079.72
2023-02-18T17:35:54.168Z,99082.22
2023-02-18T17:38:22.239Z,99085.00
2023-02-18T17:40:51.610Z,99088.19
2023-02-18T17:43:19.671Z,99100.66
2023-02-18T17:45:50.298Z,99100.16
2023-02-18T17:48:18.460Z,99101.50
2023-02-18T17:50:46.692Z,99108.69
2023-02-18T17:53:14.792Z,99111.25
2023-02-18T17:55:43.575Z,99109.28
2023-02-18T17:58:13.866Z,99106.28
2023-02-18T18:00:43.595Z,99102.56
2023-02-18T18:03:11.680Z,99106.75
2023-02-18T18:05:43.293Z,99125.59
2023-02-18T18:08:11.876Z,99127.28
2023-02-18T18:10:41.527Z,99110.44
2023-02-18T18:13:10.625Z,99137.66
2023-02-18T18:15:42.721Z,99132.34
2023-02-18T18:18:11.432Z,99131.66
2023-02-18T18:20:45.201Z,99139.91
2023-02-18T18:23:15.677Z,99143.38
2023-02-18T18:25:46.351Z,99139.75
2023-02-18T18:28:14.794Z,99143.19
2023-02-18T18:30:46.828Z,99138.88
2023-02-18T18:33:16.957Z,99138.09
2023-02-18T18:35:46.769Z,99141.09
2023-02-18T18:38:14.973Z,99144.97
2023-02-18T18:40:43.485Z,99153.22
2023-02-18T18:43:17.046Z,99148.44
2023-02-18T18:45:46.853Z,99151.94
2023-02-18T18:48:17.630Z,99158.66
2023-02-18T18:50:45.651Z,99156.50
2023-02-18T18:53:17.493Z,99156.53
2023-02-18T18:55:45.781Z,99161.03
2023-02-18T18:58:13.941Z,99164.00
2023-02-18T19:00:43.591Z,99165.94
2023-02-18T19:03:13.225Z,99168.81
2023-02-18T19:05:42.688Z,99167.94
2023-02-18T19:08:11.887Z,99169.75
2023-02-18T19:10:43.314Z,99165.44
2023-02-18T19:13:13.513Z,99166.91
2023-02-18T19:15:42.155Z,99175.91
2023-02-18T19:18:13.396Z,99178.00
2023-02-18T19:20:43.058Z,99180.50
2023-02-18T19:23:11.407Z,99184.31
2023-02-18T19:25:39.656Z,99182.88
2023-02-18T19:28:07.701Z,99184.44
2023-02-18T19:30:37.227Z,99173.22
2023-02-18T19:33:06.531Z,99172.84
2023-02-18T19:35:34.600Z,99174.66
2023-02-18T19:38:04.091Z,99148.16
2023-02-18T19:40:34.389Z,99171.97
2023-02-18T19:43:02.439Z,99179.66
2023-02-18T19:45:30.508Z,99174.00
2023-02-18T19:47:59.557Z,99170.63
2023-02-18T19:50:28.716Z,99170.06
2023-02-18T19:52:57.139Z,99171.56
2023-02-18T19:55:26.725Z,99166.69
2023-02-18T19:57:55.149Z,99175.63
2023-02-18T20:00:23.390Z,99173.22
2023-02-18T20:02:51.869Z,99173.16
2023-02-18T20:05:20.337Z,99172.16
2023-02-18T20:07:48.474Z,99170.63
2023-02-18T20:10:17.840Z,99169.91
2023-02-18T20:12:47.271Z,99174.69
2023-02-18T20:15:15.247Z,99175.53
2023-02-18T20:17:43.338Z,99166.31
2023-02-18T20:20:11.748Z,99178.63
2023-02-18T20:22:39.815Z,99179.59
2023-02-18T20:25:08.015Z,99167.63
2023-02-18T20:27:37.533Z,99178.00
2023-02-18T20:30:10.025Z,99179.28
2023-02-18T20:32:38.195Z,99175.44
2023-02-18T20:35:07.084Z,99173.97
2023-02-18T20:37:35.145Z,99176.06
2023-02-18T20:40:03.241Z,99172.25
2023-02-18T20:42:31.696Z,99173.66
2023-02-18T20:44:59.707Z,99176.28
2023-02-18T20:47:29.214Z,99172.09
2023-02-18T20:49:57.337Z,99170.06
2023-02-18T20:52:25.584Z,99177.38
2023-02-18T20:54:53.970Z,99167.53
2023-02-18T20:57:22.390Z,99176.88
2023-02-18T20:59:50.781Z,99159.97
2023-02-18T21:02:19.235Z,99164.41
2023-02-18T21:04:49.029Z,99158.53
2023-02-18T21:07:17.571Z,99175.88
2023-02-18T21:09:45.983Z,99171.25
2023-02-18T21:12:14.362Z,99163.44
2023-02-18T21:14:42.774Z,99168.47
2023-02-18T21:17:11.097Z,99165.91
2023-02-18T21:19:39.452Z,99165.34
2023-02-18T21:22:09.087Z,99167.31
2023-02-18T21:24:37.503Z,99167.56
2023-02-18T21:27:05.845Z,99172.78
2023-02-18T21:29:35.055Z,99157.25
2023-02-18T21:32:03.497Z,99174.50
2023-02-18T21:34:31.938Z,99175.75
2023-02-18T21:37:00.288Z,99166.56
2023-02-18T21:39:29.959Z,99160.84
2023-02-18T21:41:59.830Z,99128.28
2023-02-18T21:44:41.287Z,99153.94
2023-02-18T21:47:10.652Z,99156.91
2023-02-18T21:49:39.091Z,99158.22
2023-02-18T21:52:09.511Z,99171.19
2023-02-18T21:54:41.005Z,99161.06
2023-02-18T21:57:12.227Z,99160.59
2023-02-18T22:02:37.129Z,99154.44
2023-02-18T22:05:08.446Z,99162.50
2023-02-18T22:07:37.130Z,99160.53
2023-02-18T22:10:05.876Z,99160.41
2023-02-18T22:12:34.217Z,99147.75
2023-02-18T22:15:04.296Z,99147.13
2023-02-18T22:17:33.156Z,99145.03
2023-02-18T22:20:02.891Z,99145.75
2023-02-18T22:22:31.234Z,99147.03
2023-02-18T22:24:59.723Z,99148.09
2023-02-18T22:27:28.091Z,99145.06
2023-02-18T22:29:56.765Z,99134.34
2023-02-18T22:32:25.208Z,99132.53
2023-02-18T22:34:54.327Z,99126.47
2023-02-18T22:37:24.045Z,99122.25
2023-02-18T22:39:52.392Z,99128.94
2023-02-18T22:42:20.791Z,99126.25
2023-02-18T22:44:49.143Z,63131.69
2023-02-18T22:47:17.459Z,63131.69
2023-02-18T22:49:45.738Z,63131.69
2023-02-18T22:52:14.106Z,63131.69
2023-02-18T22:54:44.008Z,63131.69
2023-02-18T22:57:12.344Z,63131.69
2023-02-18T22:59:41.461Z,63131.69
2023-02-18T23:02:10.351Z,63131.69
2023-02-18T23:04:41.645Z,63131.69
2023-02-18T23:07:10.181Z,63131.69
2023-02-18T23:09:39.114Z,63131.69
2023-02-18T23:12:09.035Z,63131.69
2023-02-18T23:14:39.909Z,63131.69
2023-02-18T23:17:14.554Z,63131.69
2023-02-18T23:19:45.535Z,63131.69
2023-02-18T23:22:16.417Z,63131.69
2023-02-18T23:24:46.261Z,63131.69
2023-02-18T23:27:17.090Z,63131.69
2023-02-18T23:29:45.921Z,63131.69
2023-02-18T23:32:14.611Z,63131.69
2023-02-18T23:34:42.994Z,63131.69
2023-02-18T23:37:14.003Z,63131.69
2023-02-18T23:39:44.999Z,63131.69
2023-02-18T23:42:14.255Z,63131.69
2023-02-18T23:44:43.968Z,63131.69
2023-02-18T23:47:12.294Z,63131.69
2023-02-18T23:49:40.653Z,63131.69
2023-02-18T23:52:08.954Z,63131.69
2023-02-18T23:54:37.341Z,63131.69
2023-02-18T23:57:05.690Z,63131.69
2023-02-18T23:59:34.061Z,63131.69
